createdAt,value
2023-11-27T00:01:20.619Z,-1.90
2023-11-27T00:03:49.488Z,-1.90
2023-11-27T00:06:17.396Z,-1.90
2023-11-27T00:08:45.605Z,-2.10
2023-11-27T00:11:13.498Z,-2.00
2023-11-27T00:13:42.971Z,-2.00
2023-11-27T00:16:11.408Z,-2.10
2023-11-27T00:18:39.502Z,-2.30
2023-11-27T00:21:07.752Z,-2.30
2023-11-27T00:23:35.567Z,-2.20
2023-11-27T00:26:03.447Z,-2.20
2023-11-27T00:28:31.311Z,-2.20
2023-11-27T00:31:00.753Z,-2.20
2023-11-27T00:33:28.656Z,-2.20
2023-11-27T00:35:56.496Z,-2.10
2023-11-27T00:38:24.366Z,-2.00
2023-11-27T00:40:52.523Z,-2.00
2023-11-27T00:43:21.170Z,-1.90
2023-11-27T00:45:49.227Z,-1.80
2023-11-27T00:48:18.543Z,-1.80
2023-11-27T00:50:46.487Z,-1.70
2023-11-27T00:53:15.660Z,-1.80
2023-11-27T00:55:44.874Z,-2.00
2023-11-27T00:58:12.843Z,-2.00
2023-11-27T01:00:40.954Z,-2.10
2023-11-27T01:03:08.912Z,-2.10
2023-11-27T01:05:38.588Z,-2.10
2023-11-27T01:08:06.754Z,-2.10
2023-11-27T01:10:34.668Z,-2.10
2023-11-27T01:13:02.543Z,-2.10
2023-11-27T01:15:30.410Z,-2.10
2023-11-27T01:17:58.704Z,-2.10
2023-11-27T01:20:26.908Z,-2.10
2023-11-27T01:22:56.250Z,-2.10
2023-11-27T01:25:24.364Z,-2.10
2023-11-27T01:27:52.441Z,-2.10
2023-11-27T01:30:21.117Z,-2.10
2023-11-27T01:32:49.252Z,-2.00
2023-11-27T01:35:17.191Z,-2.00
2023-11-27T01:37:45.064Z,-1.90
2023-11-27T01:40:14.302Z,-1.90
2023-11-27T01:42:42.544Z,-1.80
2023-11-27T01:45:11.159Z,-1.80
2023-11-27T01:47:39.393Z,-1.80
2023-11-27T01:50:09.633Z,-1.80
2023-11-27T01:52:39.856Z,-1.70
2023-11-27T01:55:08.647Z,-1.70
2023-11-27T01:57:38.431Z,-1.60
2023-11-27T02:00:07.469Z,-1.60
2023-11-27T02:02:35.714Z,-1.60
2023-11-27T02:05:05.967Z,-1.60
2023-11-27T02:07:33.818Z,-1.50
2023-11-27T02:10:02.592Z,-1.50
2023-11-27T02:12:30.507Z,-1.60
2023-11-27T02:14:59.788Z,-1.60
2023-11-27T02:17:27.819Z,-1.70
2023-11-27T02:19:55.689Z,-1.70
2023-11-27T02:22:25.598Z,-1.70
2023-11-27T02:24:54.901Z,-1.80
2023-11-27T02:27:23.350Z,-1.80
2023-11-27T02:29:51.182Z,-1.80
2023-11-27T02:32:19.037Z,-1.90
2023-11-27T02:34:48.482Z,-2.00
2023-11-27T02:37:16.648Z,-2.00
2023-11-27T02:39:44.609Z,-2.00
2023-11-27T02:42:13.815Z,-2.10
2023-11-27T02:44:41.693Z,-2.10
2023-11-27T02:47:09.558Z,-2.20
2023-11-27T02:49:37.586Z,-2.20
2023-11-27T02:52:05.861Z,-2.20
2023-11-27T02:54:34.827Z,-2.20
2023-11-27T02:57:04.177Z,-2.10
2023-11-27T02:59:33.385Z,-2.00
2023-11-27T03:02:01.438Z,-1.90
2023-11-27T03:04:31.846Z,-1.70
2023-11-27T03:07:00.046Z,-1.70
2023-11-27T03:09:27.947Z,-1.70
2023-11-27T03:11:55.792Z,-1.70
2023-11-27T03:14:23.617Z,-1.70
2023-11-27T03:16:52.922Z,-1.70
2023-11-27T03:19:20.870Z,-1.70
2023-11-27T03:21:49.205Z,-1.70
2023-11-27T03:24:17.067Z,-1.70
2023-11-27T03:26:45.300Z,-1.70
2023-11-27T03:29:14.347Z,-1.60
2023-11-27T03:31:42.333Z,-1.60
2023-11-27T03:34:11.547Z,-1.60
2023-11-27T03:36:39.400Z,-1.60
2023-11-27T03:39:07.933Z,-1.50
2023-11-27T03:41:35.787Z,-1.50
2023-11-27T03:44:03.657Z,-1.40
2023-11-27T03:46:31.568Z,-1.40
2023-11-27T03:48:59.499Z,-1.40
2023-11-27T03:51:28.956Z,-1.30
2023-11-27T03:53:56.857Z,-1.30
2023-11-27T03:56:24.840Z,-1.30
2023-11-27T03:58:52.736Z,-1.30
2023-11-27T04:01:20.721Z,-1.30
2023-11-27T04:03:48.664Z,-1.40
2023-11-27T04:06:23.883Z,-1.40
2023-11-27T04:08:53.117Z,-1.40
2023-11-27T04:11:21.404Z,-1.40
2023-11-27T04:13:49.371Z,-1.40
2023-11-27T04:16:17.594Z,-1.40
2023-11-27T04:18:45.560Z,-1.40
2023-11-27T04:21:13.425Z,-1.30
2023-11-27T04:23:41.293Z,-1.30
2023-11-27T04:26:10.543Z,-1.30
2023-11-27T04:28:38.589Z,-1.40
2023-11-27T04:31:06.989Z,-1.30
2023-11-27T04:33:35.782Z,-1.40
2023-11-27T04:36:03.835Z,-1.40
2023-11-27T04:38:31.696Z,-1.40
2023-11-27T04:40:59.631Z,-1.40
2023-11-27T04:43:28.884Z,-1.50
2023-11-27T04:45:57.132Z,-1.50
2023-11-27T04:48:24.985Z,-1.50
2023-11-27T04:50:52.856Z,-1.50
2023-11-27T04:53:20.752Z,-1.50
2023-11-27T04:55:48.563Z,-1.50
2023-11-27T04:58:16.437Z,-1.50
2023-11-27T05:00:45.755Z,-1.40
2023-11-27T05:03:13.582Z,-1.30
2023-11-27T05:05:41.519Z,-1.30
2023-11-27T05:08:09.353Z,-1.30
2023-11-27T05:10:40.285Z,-1.20
2023-11-27T05:13:08.372Z,-1.10
2023-11-27T05:15:36.351Z,-0.90
2023-11-27T05:18:06.750Z,-0.90
2023-11-27T05:20:34.747Z,-1.00
2023-11-27T05:23:03.170Z,-1.00
2023-11-27T05:25:31.084Z,-1.00
2023-11-27T05:27:59.078Z,-1.00
2023-11-27T05:30:27.028Z,-1.00
2023-11-27T05:32:55.015Z,-1.00
2023-11-27T05:35:24.225Z,-0.90
2023-11-27T05:37:52.276Z,-0.90
2023-11-27T05:40:21.935Z,-0.90
2023-11-27T05:42:50.065Z,-0.90
2023-11-27T05:45:18.714Z,-1.00
2023-11-27T05:47:46.772Z,-1.00
2023-11-27T05:50:14.674Z,-1.00
2023-11-27T05:52:44.114Z,-1.00
2023-11-27T05:55:12.020Z,-1.00
2023-11-27T05:57:39.877Z,-1.10
2023-11-27T06:00:09.021Z,-1.10
2023-11-27T06:02:38.042Z,-1.10
2023-11-27T06:05:07.144Z,-1.10
2023-11-27T06:07:35.046Z,-1.20
2023-11-27T06:10:05.085Z,-1.10
2023-11-27T06:12:33.054Z,-1.10
2023-11-27T06:15:01.022Z,-1.00
2023-11-27T06:17:28.876Z,-0.90
2023-11-27T06:19:56.801Z,-0.80
2023-11-27T06:22:27.090Z,-0.70
2023-11-27T06:24:57.654Z,-0.60
2023-11-27T06:27:27.630Z,-0.60
2023-11-27T06:29:55.786Z,-0.60
2023-11-27T06:32:23.747Z,-0.50
2023-11-27T06:34:52.267Z,-0.40
2023-11-27T06:37:20.416Z,-0.30
2023-11-27T06:39:48.278Z,-0.20
2023-11-27T06:42:16.505Z,-0.10
2023-11-27T06:44:45.720Z,-0.10
2023-11-27T06:47:13.761Z,-0.10
2023-11-27T06:49:42.220Z,-0.10
2023-11-27T06:52:10.120Z,0.00
2023-11-27T06:54:37.958Z,0.00
2023-11-27T06:57:06.188Z,0.10
2023-11-27T06:59:34.029Z,0.20
2023-11-27T07:02:04.104Z,0.20
2023-11-27T07:04:32.068Z,0.30
2023-11-27T07:07:00.049Z,0.30
2023-11-27T07:09:29.056Z,0.20
2023-11-27T07:11:56.912Z,0.30
2023-11-27T07:14:24.796Z,0.30
2023-11-27T07:16:52.761Z,0.30
2023-11-27T07:19:22.117Z,0.30
2023-11-27T07:21:49.947Z,0.30
2023-11-27T07:24:20.095Z,0.40
2023-11-27T07:26:48.859Z,0.40
2023-11-27T07:29:16.767Z,0.40
2023-11-27T07:31:44.728Z,0.40
2023-11-27T07:34:12.939Z,0.50
2023-11-27T07:36:42.605Z,0.50
2023-11-27T07:39:12.148Z,0.50
2023-11-27T07:41:40.176Z,0.50
2023-11-27T07:44:10.865Z,0.60
2023-11-27T07:46:38.814Z,0.60
2023-11-27T07:49:07.509Z,0.70
2023-11-27T07:51:35.420Z,0.70
2023-11-27T07:54:04.968Z,0.70
2023-11-27T07:56:34.058Z,0.80
2023-11-27T07:59:01.994Z,0.80
2023-11-27T08:01:29.925Z,0.80
2023-11-27T08:03:59.062Z,0.90
2023-11-27T08:06:27.207Z,0.90
2023-11-27T08:08:57.058Z,0.90
2023-11-27T08:11:34.139Z,1.00
2023-11-27T08:14:02.555Z,1.20
2023-11-27T08:16:30.980Z,1.30
2023-11-27T08:18:59.275Z,1.40
2023-11-27T08:21:27.205Z,1.50
2023-11-27T08:23:57.719Z,1.50
2023-11-27T08:26:28.521Z,1.60
2023-11-27T08:28:57.805Z,1.60
2023-11-27T08:31:32.769Z,1.60
2023-11-27T08:34:00.996Z,1.60
2023-11-27T08:36:28.964Z,1.70
2023-11-27T08:38:58.611Z,1.80
2023-11-27T08:41:26.683Z,1.90
2023-11-27T08:43:54.589Z,1.90
2023-11-27T08:46:23.998Z,1.90
2023-11-27T08:48:51.904Z,2.00
2023-11-27T08:51:22.696Z,2.00
2023-11-27T08:53:51.236Z,2.10
2023-11-27T08:56:19.234Z,2.10
2023-11-27T08:58:48.722Z,2.20
2023-11-27T09:01:18.064Z,2.20
2023-11-27T09:03:47.473Z,2.30
2023-11-27T09:06:15.924Z,2.40
2023-11-27T09:08:43.869Z,2.40
2023-11-27T09:11:12.454Z,2.50
2023-11-27T09:13:40.415Z,2.40
2023-11-27T09:16:10.216Z,2.50
2023-11-27T09:18:38.148Z,2.40
2023-11-27T09:21:07.959Z,2.40
2023-11-27T09:23:35.859Z,2.40
2023-11-27T09:26:03.821Z,2.50
2023-11-27T09:28:31.740Z,2.50
2023-11-27T09:30:59.630Z,2.60
2023-11-27T09:33:27.476Z,2.60
2023-11-27T09:35:55.370Z,2.70
2023-11-27T09:38:24.600Z,2.70
2023-11-27T09:40:52.524Z,2.70
2023-11-27T09:43:21.002Z,2.70
2023-11-27T09:45:49.015Z,2.80
2023-11-27T09:48:19.889Z,2.70
2023-11-27T09:50:51.967Z,2.60
2023-11-27T09:53:22.717Z,2.70
2023-11-27T09:55:54.436Z,2.60
2023-11-27T09:58:23.408Z,2.50
2023-11-27T10:00:51.774Z,2.50
2023-11-27T10:03:21.700Z,2.60
2023-11-27T10:05:53.267Z,2.60
2023-11-27T10:08:21.197Z,2.70
2023-11-27T10:10:49.269Z,2.80
2023-11-27T10:13:32.450Z,3.00
2023-11-27T10:16:07.040Z,2.90
2023-11-27T10:18:35.106Z,2.90
2023-11-27T10:21:09.786Z,3.00
2023-11-27T10:23:37.677Z,3.00
2023-11-27T10:26:07.023Z,2.90
2023-11-27T10:28:54.282Z,2.90
2023-11-27T10:31:22.235Z,3.00
2023-11-27T10:33:50.173Z,3.00
2023-11-27T10:36:24.365Z,3.00
2023-11-27T10:39:15.786Z,3.00
2023-11-27T10:41:45.519Z,3.10
2023-11-27T10:44:16.451Z,3.20
2023-11-27T10:46:46.069Z,3.20
2023-11-27T10:49:15.796Z,3.30
2023-11-27T10:51:46.064Z,3.30
2023-11-27T10:54:15.991Z,3.20
2023-11-27T10:56:47.515Z,3.20
2023-11-27T10:59:18.268Z,2.90
2023-11-27T11:01:48.813Z,3.00
2023-11-27T11:04:24.811Z,3.00
2023-11-27T11:06:56.553Z,2.90
2023-11-27T11:09:26.789Z,2.90
2023-11-27T11:11:56.500Z,2.90
2023-11-27T11:14:28.127Z,2.80
2023-11-27T11:17:09.351Z,2.80
2023-11-27T11:19:44.462Z,2.80
2023-11-27T11:22:25.071Z,2.70
2023-11-27T11:25:05.057Z,2.70
2023-11-27T11:27:41.219Z,2.60
2023-11-27T11:30:14.333Z,2.70
2023-11-27T11:32:42.588Z,2.60
2023-11-27T11:35:12.441Z,2.60
2023-11-27T11:37:49.035Z,2.60
2023-11-27T11:40:17.823Z,2.60
2023-11-27T11:42:48.896Z,2.70
2023-11-27T11:45:20.226Z,2.70
2023-11-27T11:47:53.882Z,2.70
2023-11-27T11:50:28.483Z,2.80
2023-11-27T11:52:58.478Z,2.90
2023-11-27T11:55:27.673Z,2.90
2023-11-27T11:57:59.488Z,3.00
2023-11-27T12:00:43.274Z,3.00
2023-11-27T12:03:16.896Z,3.00
2023-11-27T12:05:47.850Z,3.00
2023-11-27T12:08:16.120Z,3.00
2023-11-27T12:10:44.890Z,2.90
2023-11-27T12:13:12.910Z,2.90
2023-11-27T12:15:42.225Z,2.90
2023-11-27T12:18:10.984Z,2.90
2023-11-27T12:20:39.669Z,2.80
2023-11-27T12:23:07.561Z,2.80
2023-11-27T12:25:37.365Z,2.80
2023-11-27T12:28:07.986Z,2.90
2023-11-27T12:30:36.137Z,2.90
2023-11-27T12:33:06.451Z,2.90
2023-11-27T12:35:34.347Z,2.90
2023-11-27T12:38:04.882Z,2.90
2023-11-27T12:40:34.712Z,2.90
2023-11-27T12:43:06.326Z,2.90
2023-11-27T12:45:37.472Z,2.80
2023-11-27T12:48:09.090Z,2.70
2023-11-27T12:50:40.604Z,2.70
2023-11-27T12:53:09.941Z,2.80
2023-11-27T12:55:39.526Z,2.80
2023-11-27T12:58:13.698Z,2.80
2023-11-27T13:00:44.976Z,2.80
2023-11-27T13:03:16.391Z,2.90
2023-11-27T13:05:45.109Z,2.80
2023-11-27T13:08:13.254Z,2.80
2023-11-27T13:10:44.198Z,2.80
2023-11-27T13:13:12.762Z,2.80
2023-11-27T13:15:41.148Z,2.80
2023-11-27T13:18:13.618Z,2.70
2023-11-27T13:20:46.968Z,2.70
2023-11-27T13:23:16.834Z,2.70
2023-11-27T13:25:48.157Z,2.60
2023-11-27T13:28:19.341Z,2.50
2023-11-27T13:30:52.887Z,2.50
2023-11-27T13:33:21.314Z,2.50
2023-11-27T13:35:58.718Z,2.50
2023-11-27T13:38:26.771Z,2.50
2023-11-27T13:40:56.006Z,2.50
2023-11-27T13:43:26.954Z,2.50
2023-11-27T13:45:55.008Z,2.50
2023-11-27T13:48:23.582Z,2.40
2023-11-27T13:50:58.034Z,2.50
2023-11-27T13:53:26.360Z,2.50
2023-11-27T13:55:57.312Z,2.50
2023-11-27T13:58:27.808Z,2.50
2023-11-27T14:00:57.849Z,2.50
2023-11-27T14:03:27.593Z,2.40
2023-11-27T14:05:57.748Z,2.40
2023-11-27T14:08:40.600Z,2.40
2023-11-27T14:11:25.771Z,2.40
2023-11-27T14:14:06.282Z,2.40
2023-11-27T14:16:34.985Z,2.40
2023-11-27T14:19:26.300Z,2.40
2023-11-27T14:22:12.989Z,2.30
2023-11-27T14:24:50.371Z,2.20
2023-11-27T14:27:24.858Z,2.20
2023-11-27T14:29:52.890Z,2.20
2023-11-27T14:32:21.207Z,2.10
2023-11-27T14:34:53.069Z,2.10
2023-11-27T14:37:22.782Z,2.00
2023-11-27T14:39:53.891Z,2.00
2023-11-27T14:42:22.201Z,2.00
2023-11-27T14:44:50.540Z,1.90
2023-11-27T14:47:21.339Z,1.90
2023-11-27T14:49:55.831Z,1.80
2023-11-27T14:52:28.405Z,1.80
2023-11-27T14:54:56.565Z,1.70
2023-11-27T14:57:27.317Z,1.60
2023-11-27T14:59:57.690Z,1.60
2023-11-27T15:02:29.728Z,1.50
2023-11-27T15:04:57.852Z,1.50
2023-11-27T15:07:28.387Z,1.40
2023-11-27T15:09:57.167Z,1.40
2023-11-27T15:12:25.807Z,1.40
2023-11-27T15:14:53.801Z,1.40
2023-11-27T15:17:22.386Z,1.40
2023-11-27T15:19:52.277Z,1.30
2023-11-27T15:22:20.650Z,1.40
2023-11-27T15:24:50.516Z,1.40
2023-11-27T15:27:18.362Z,1.40
2023-11-27T15:29:46.285Z,1.50
2023-11-27T15:32:16.533Z,1.60
2023-11-27T15:34:44.511Z,1.60
2023-11-27T15:37:12.473Z,1.60
2023-11-27T15:39:49.112Z,1.60
2023-11-27T15:42:18.794Z,1.70
2023-11-27T15:44:46.860Z,1.80
2023-11-27T15:47:14.810Z,1.80
2023-11-27T15:49:43.151Z,1.80
2023-11-27T15:52:12.252Z,1.80
2023-11-27T15:54:40.132Z,1.80
2023-11-27T15:57:09.595Z,1.90
2023-11-27T15:59:41.041Z,1.90
2023-11-27T16:02:11.387Z,1.90
2023-11-27T16:04:39.988Z,1.90
2023-11-27T16:07:07.966Z,1.90
2023-11-27T16:09:38.329Z,1.90
2023-11-27T16:12:07.585Z,1.90
2023-11-27T16:14:35.432Z,1.90
2023-11-27T16:17:05.622Z,1.90
2023-11-27T16:19:33.540Z,1.90
2023-11-27T16:22:01.442Z,1.90
2023-11-27T16:24:29.355Z,2.00
2023-11-27T16:26:57.495Z,2.00
2023-11-27T16:29:26.939Z,2.00
2023-11-27T16:31:54.881Z,2.00
2023-11-27T16:34:24.176Z,2.00
2023-11-27T16:36:52.064Z,2.10
2023-11-27T16:39:21.642Z,2.00
2023-11-27T16:41:50.001Z,1.90
2023-11-27T16:44:17.895Z,1.90
2023-11-27T16:46:45.854Z,1.90
2023-11-27T16:49:13.962Z,1.90
2023-11-27T16:51:43.166Z,1.90
2023-11-27T16:54:11.884Z,1.80
2023-11-27T16:56:40.829Z,1.80
2023-11-27T16:59:08.690Z,1.80
2023-11-27T17:01:37.741Z,1.80
2023-11-27T17:04:06.879Z,1.70
2023-11-27T17:06:34.814Z,1.80
2023-11-27T17:09:05.073Z,1.80
2023-11-27T17:11:33.278Z,1.80
2023-11-27T17:14:02.683Z,1.80
2023-11-27T17:16:30.650Z,1.80
2023-11-27T17:18:58.591Z,1.80
2023-11-27T17:21:26.449Z,1.80
2023-11-27T17:23:54.370Z,1.70
2023-11-27T17:26:23.855Z,1.70
2023-11-27T17:28:52.600Z,1.70
2023-11-27T17:31:20.558Z,1.70
2023-11-27T17:33:48.502Z,1.60
2023-11-27T17:36:16.859Z,1.60
2023-11-27T17:38:45.353Z,1.60
2023-11-27T17:41:13.420Z,1.60
2023-11-27T17:43:42.790Z,1.60
2023-11-27T17:46:12.278Z,1.60
2023-11-27T17:48:40.664Z,1.50
2023-11-27T17:51:09.142Z,1.40
2023-11-27T17:53:37.469Z,1.50
2023-11-27T17:56:06.102Z,1.50
2023-11-27T17:58:34.135Z,1.50
2023-11-27T18:01:06.639Z,1.50
2023-11-27T18:03:36.189Z,1.50
2023-11-27T18:06:04.248Z,1.40
2023-11-27T18:08:32.104Z,1.50
2023-11-27T18:11:01.205Z,1.40
2023-11-27T18:13:29.135Z,1.40
2023-11-27T18:15:59.260Z,1.40
2023-11-27T18:18:28.651Z,1.40
2023-11-27T18:20:56.519Z,1.40
2023-11-27T18:23:24.477Z,1.50
2023-11-27T18:25:52.581Z,1.40
2023-11-27T18:28:20.705Z,1.50
2023-11-27T18:30:48.606Z,1.50
2023-11-27T18:33:16.539Z,1.50
2023-11-27T18:35:48.665Z,1.60
2023-11-27T18:38:16.643Z,1.60
2023-11-27T18:40:44.592Z,1.50
2023-11-27T18:43:13.359Z,1.60
2023-11-27T18:45:41.883Z,1.60
2023-11-27T18:48:09.797Z,1.60
2023-11-27T18:50:37.756Z,1.60
2023-11-27T18:53:06.944Z,1.60
2023-11-27T18:55:34.878Z,1.60
2023-11-27T18:58:02.889Z,1.60
2023-11-27T19:00:30.824Z,1.60
2023-11-27T19:02:59.154Z,1.60
2023-11-27T19:05:27.133Z,1.60
2023-11-27T19:07:55.040Z,1.70
2023-11-27T19:10:25.008Z,1.60
2023-11-27T19:12:53.945Z,1.60
2023-11-27T19:15:23.829Z,1.60
2023-11-27T19:17:52.208Z,1.60
2023-11-27T19:20:20.367Z,1.60
2023-11-27T19:22:48.379Z,1.60
2023-11-27T19:25:16.489Z,1.60
2023-11-27T19:27:49.073Z,1.60
2023-11-27T19:30:18.081Z,1.60
2023-11-27T19:32:46.318Z,1.60
2023-11-27T19:35:14.386Z,1.60
2023-11-27T19:37:42.283Z,1.70
2023-11-27T19:40:11.537Z,1.60
2023-11-27T19:42:39.806Z,1.70
2023-11-27T19:45:11.495Z,1.70
2023-11-27T19:47:39.709Z,1.70
2023-11-27T19:50:10.496Z,1.70
2023-11-27T19:52:38.574Z,1.70
2023-11-27T19:55:07.853Z,1.70
2023-11-27T19:57:35.881Z,1.70
2023-11-27T20:00:04.824Z,1.80
2023-11-27T20:02:36.741Z,1.80
2023-11-27T20:05:06.724Z,1.90
2023-11-27T20:07:34.751Z,1.90
2023-11-27T20:10:02.771Z,1.90
2023-11-27T20:12:30.671Z,1.90
2023-11-27T20:14:58.530Z,1.90
2023-11-27T20:17:28.270Z,2.00
2023-11-27T20:19:57.638Z,2.00
2023-11-27T20:22:25.632Z,2.00
2023-11-27T20:24:53.570Z,2.00
2023-11-27T20:27:22.169Z,2.00
2023-11-27T20:29:50.066Z,2.00
2023-11-27T20:32:18.000Z,2.00
2023-11-27T20:34:47.126Z,2.00
2023-11-27T20:37:16.473Z,2.00
2023-11-27T20:39:46.146Z,2.00
2023-11-27T20:42:14.508Z,1.90
2023-11-27T20:44:48.265Z,2.00
2023-11-27T20:47:22.188Z,2.00
2023-11-27T20:49:52.784Z,2.00
2023-11-27T20:52:24.249Z,2.00
2023-11-27T20:54:52.239Z,2.00
2023-11-27T20:57:20.181Z,2.00
2023-11-27T20:59:48.246Z,2.00
2023-11-27T21:02:16.504Z,2.00
2023-11-27T21:04:45.114Z,2.00
2023-11-27T21:07:13.067Z,1.90
2023-11-27T21:09:42.393Z,2.00
2023-11-27T21:12:10.642Z,2.00
2023-11-27T21:14:38.552Z,2.00
2023-11-27T21:17:06.755Z,2.00
2023-11-27T21:19:34.696Z,2.00
2023-11-27T21:22:04.527Z,2.00
2023-11-27T21:24:32.403Z,2.10
2023-11-27T21:27:04.694Z,2.00
2023-11-27T21:29:33.784Z,2.00
2023-11-27T21:32:01.902Z,2.00
2023-11-27T21:34:29.902Z,2.00
2023-11-27T21:36:57.789Z,2.00
2023-11-27T21:39:25.627Z,2.00
2023-11-27T21:41:53.897Z,2.00
2023-11-27T21:44:23.533Z,2.00
2023-11-27T21:46:51.477Z,1.90
2023-11-27T21:49:19.497Z,1.90
2023-11-27T21:51:47.674Z,1.90
2023-11-27T21:54:15.555Z,1.90
2023-11-27T21:56:43.520Z,1.90
2023-11-27T21:59:11.387Z,1.90
2023-11-27T22:01:41.861Z,1.90
2023-11-27T22:04:10.063Z,1.90
2023-11-27T22:06:39.413Z,1.90
2023-11-27T22:09:07.711Z,1.90
2023-11-27T22:11:35.640Z,2.00
2023-11-27T22:14:03.503Z,2.00
2023-11-27T22:16:31.461Z,2.10
2023-11-27T22:19:01.184Z,2.00
2023-11-27T22:21:29.049Z,2.00
2023-11-27T22:23:57.153Z,2.10
2023-11-27T22:26:25.147Z,2.10
2023-11-27T22:28:53.075Z,2.10
2023-11-27T22:31:21.204Z,2.20
2023-11-27T22:33:49.247Z,2.20
2023-11-27T22:36:18.814Z,2.20
2023-11-27T22:38:46.706Z,2.30
2023-11-27T22:41:14.598Z,2.20
2023-11-27T22:43:42.577Z,2.30
2023-11-27T22:46:11.065Z,2.40
2023-11-27T22:48:39.026Z,2.40
2023-11-27T22:51:08.166Z,2.40
2023-11-27T22:53:37.358Z,2.50
2023-11-27T22:56:05.814Z,2.50
2023-11-27T22:58:33.670Z,2.50
2023-11-27T23:01:01.578Z,2.50
2023-11-27T23:03:29.804Z,2.50
2023-11-27T23:05:57.705Z,2.50
2023-11-27T23:08:25.584Z,2.50
2023-11-27T23:10:54.889Z,2.50
2023-11-27T23:13:22.814Z,2.50
2023-11-27T23:15:50.679Z,2.50
2023-11-27T23:18:19.067Z,2.60
2023-11-27T23:20:46.936Z,2.50
2023-11-27T23:23:14.867Z,2.50
2023-11-27T23:25:44.471Z,2.50
2023-11-27T23:28:14.479Z,2.60
2023-11-27T23:30:43.923Z,2.60
2023-11-27T23:33:11.867Z,2.60
2023-11-27T23:35:39.731Z,2.60
2023-11-27T23:38:07.596Z,2.50
2023-11-27T23:40:36.792Z,2.50
2023-11-27T23:43:05.292Z,2.50
2023-11-27T23:45:34.574Z,2.60
2023-11-27T23:48:02.559Z,2.60
2023-11-27T23:50:30.508Z,2.60
2023-11-27T23:53:00.009Z,2.70
2023-11-27T23:55:27.945Z,2.70
2023-11-27T23:57:55.831Z,2.60
